sensor_id;sensor_type;location;lat;lon;timestamp;temperature;humidity
5940;DHT22;2995;-31.998;115.906;2023-03-01T00:00:28;25.10;99.90
5940;DHT22;2995;-31.998;115.906;2023-03-01T00:03:00;25.20;99.90
5940;DHT22;2995;-31.998;115.906;2023-03-01T00:05:31;25.30;99.90
5940;DHT22;2995;-31.998;115.906;2023-03-01T00:08:02;25.40;99.90
5940;DHT22;2995;-31.998;115.906;2023-03-01T00:10:35;25.60;99.90
5940;DHT22;2995;-31.998;115.906;2023-03-01T00:13:07;25.70;99.90
5940;DHT22;2995;-31.998;115.906;2023-03-01T00:15:40;25.90;99.90
5940;DHT22;2995;-31.998;115.906;2023-03-01T00:18:11;26.00;99.90
5940;DHT22;2995;-31.998;115.906;2023-03-01T00:20:49;26.10;99.90
5940;DHT22;2995;-31.998;115.906;2023-03-01T00:23:21;26.30;99.90
5940;DHT22;2995;-31.998;115.906;2023-03-01T00:25:57;26.50;99.90
5940;DHT22;2995;-31.998;115.906;2023-03-01T00:28:29;26.40;99.90
5940;DHT22;2995;-31.998;115.906;2023-03-01T00:31:04;26.60;99.90
5940;DHT22;2995;-31.998;115.906;2023-03-01T00:33:36;26.60;99.90
5940;DHT22;2995;-31.998;115.906;2023-03-01T00:36:07;26.70;99.90
5940;DHT22;2995;-31.998;115.906;2023-03-01T00:38:40;26.70;99.90
5940;DHT22;2995;-31.998;115.906;2023-03-01T00:41:15;26.90;99.90
5940;DHT22;2995;-31.998;115.906;2023-03-01T00:43:46;27.20;99.90
5940;DHT22;2995;-31.998;115.906;2023-03-01T00:46:19;27.50;99.90
5940;DHT22;2995;-31.998;115.906;2023-03-01T00:48:51;27.50;99.90
5940;DHT22;2995;-31.998;115.906;2023-03-01T00:51:23;27.40;99.90
5940;DHT22;2995;-31.998;115.906;2023-03-01T00:53:55;27.40;99.90
5940;DHT22;2995;-31.998;115.906;2023-03-01T00:56:29;27.60;99.90
5940;DHT22;2995;-31.998;115.906;2023-03-01T00:59:00;27.40;99.90
5940;DHT22;2995;-31.998;115.906;2023-03-01T01:01:32;27.70;99.90
5940;DHT22;2995;-31.998;115.906;2023-03-01T01:04:04;27.50;99.90
5940;DHT22;2995;-31.998;115.906;2023-03-01T01:06:38;27.30;99.90
5940;DHT22;2995;-31.998;115.906;2023-03-01T01:09:14;27.50;99.90
5940;DHT22;2995;-31.998;115.906;2023-03-01T01:11:50;27.80;99.90
5940;DHT22;2995;-31.998;115.906;2023-03-01T01:14:21;28.10;99.90
5940;DHT22;2995;-31.998;115.906;2023-03-01T01:16:53;28.30;99.90
5940;DHT22;2995;-31.998;115.906;2023-03-01T01:19:24;28.40;99.90
5940;DHT22;2995;-31.998;115.906;2023-03-01T01:21:55;28.40;99.90
5940;DHT22;2995;-31.998;115.906;2023-03-01T01:24:26;28.50;99.90
5940;DHT22;2995;-31.998;115.906;2023-03-01T01:27:02;28.60;99.90
5940;DHT22;2995;-31.998;115.906;2023-03-01T01:29:34;28.80;99.90
5940;DHT22;2995;-31.998;115.906;2023-03-01T01:32:06;29.00;99.90
5940;DHT22;2995;-31.998;115.906;2023-03-01T01:34:37;29.10;99.90
5940;DHT22;2995;-31.998;115.906;2023-03-01T01:37:11;29.30;99.90
5940;DHT22;2995;-31.998;115.906;2023-03-01T01:39:43;29.40;99.90
5940;DHT22;2995;-31.998;115.906;2023-03-01T01:42:17;29.30;99.90
5940;DHT22;2995;-31.998;115.906;2023-03-01T01:45:15;29.50;99.90
5940;DHT22;2995;-31.998;115.906;2023-03-01T01:47:43;29.60;99.90
5940;DHT22;2995;-31.998;115.906;2023-03-01T01:50:19;29.60;99.90
5940;DHT22;2995;-31.998;115.906;2023-03-01T01:52:54;29.60;99.90
5940;DHT22;2995;-31.998;115.906;2023-03-01T01:55:27;29.80;99.90
5940;DHT22;2995;-31.998;115.906;2023-03-01T01:58:03;29.50;99.90
5940;DHT22;2995;-31.998;115.906;2023-03-01T02:00:35;29.50;99.90
5940;DHT22;2995;-31.998;115.906;2023-03-01T02:03:10;29.50;99.90
5940;DHT22;2995;-31.998;115.906;2023-03-01T02:05:47;29.60;99.90
5940;DHT22;2995;-31.998;115.906;2023-03-01T02:08:21;29.50;99.90
5940;DHT22;2995;-31.998;115.906;2023-03-01T02:10:54;29.30;99.90
5940;DHT22;2995;-31.998;115.906;2023-03-01T02:13:30;29.40;99.90
5940;DHT22;2995;-31.998;115.906;2023-03-01T02:16:04;29.70;99.80
5940;DHT22;2995;-31.998;115.906;2023-03-01T02:18:35;30.00;99.90
5940;DHT22;2995;-31.998;115.906;2023-03-01T02:21:16;30.20;99.90
5940;DHT22;2995;-31.998;115.906;2023-03-01T02:23:48;30.10;99.70
5940;DHT22;2995;-31.998;115.906;2023-03-01T02:26:25;29.90;99.50
5940;DHT22;2995;-31.998;115.906;2023-03-01T02:29:00;30.00;99.70
5940;DHT22;2995;-31.998;115.906;2023-03-01T02:31:33;30.20;99.20
5940;DHT22;2995;-31.998;115.906;2023-03-01T02:34:15;30.10;99.40
5940;DHT22;2995;-31.998;115.906;2023-03-01T02:36:49;30.30;99.90
5940;DHT22;2995;-31.998;115.906;2023-03-01T02:39:25;30.60;98.70
5940;DHT22;2995;-31.998;115.906;2023-03-01T02:41:58;30.90;98.40
5940;DHT22;2995;-31.998;115.906;2023-03-01T02:44:31;31.00;98.90
5940;DHT22;2995;-31.998;115.906;2023-03-01T02:47:04;31.10;98.40
5940;DHT22;2995;-31.998;115.906;2023-03-01T02:49:36;31.20;98.60
5940;DHT22;2995;-31.998;115.906;2023-03-01T02:55:10;31.50;97.90
5940;DHT22;2995;-31.998;115.906;2023-03-01T02:57:42;31.60;97.80
5940;DHT22;2995;-31.998;115.906;2023-03-01T03:00:18;31.70;97.40
5940;DHT22;2995;-31.998;115.906;2023-03-01T03:02:51;31.70;98.20
5940;DHT22;2995;-31.998;115.906;2023-03-01T03:05:25;31.90;97.60
5940;DHT22;2995;-31.998;115.906;2023-03-01T03:07:56;32.00;97.90
5940;DHT22;2995;-31.998;115.906;2023-03-01T03:10:30;32.10;97.00
5940;DHT22;2995;-31.998;115.906;2023-03-01T03:13:03;31.90;97.90
5940;DHT22;2995;-31.998;115.906;2023-03-01T03:15:37;32.00;97.10
5940;DHT22;2995;-31.998;115.906;2023-03-01T03:18:11;32.10;97.20
5940;DHT22;2995;-31.998;115.906;2023-03-01T03:20:43;32.30;96.90
5940;DHT22;2995;-31.998;115.906;2023-03-01T03:23:15;32.50;97.00
5940;DHT22;2995;-31.998;115.906;2023-03-01T03:25:47;32.50;96.20
5940;DHT22;2995;-31.998;115.906;2023-03-01T03:28:19;32.60;96.10
5940;DHT22;2995;-31.998;115.906;2023-03-01T03:30:53;32.70;95.90
5940;DHT22;2995;-31.998;115.906;2023-03-01T03:33:24;32.60;95.80
5940;DHT22;2995;-31.998;115.906;2023-03-01T03:35:55;32.50;96.20
5940;DHT22;2995;-31.998;115.906;2023-03-01T03:38:26;32.90;95.90
5940;DHT22;2995;-31.998;115.906;2023-03-01T03:41:02;33.00;95.90
5940;DHT22;2995;-31.998;115.906;2023-03-01T03:43:35;32.90;95.30
5940;DHT22;2995;-31.998;115.906;2023-03-01T03:46:09;32.80;95.20
5940;DHT22;2995;-31.998;115.906;2023-03-01T03:48:42;32.90;95.30
5940;DHT22;2995;-31.998;115.906;2023-03-01T03:51:14;33.00;95.00
5940;DHT22;2995;-31.998;115.906;2023-03-01T03:53:46;32.90;95.30
5940;DHT22;2995;-31.998;115.906;2023-03-01T03:56:17;32.90;95.40
5940;DHT22;2995;-31.998;115.906;2023-03-01T03:58:48;33.00;95.30
5940;DHT22;2995;-31.998;115.906;2023-03-01T04:01:22;33.10;94.80
5940;DHT22;2995;-31.998;115.906;2023-03-01T04:03:53;33.10;95.10
5940;DHT22;2995;-31.998;115.906;2023-03-01T04:06:30;33.30;95.20
5940;DHT22;2995;-31.998;115.906;2023-03-01T04:09:02;33.20;94.90
5940;DHT22;2995;-31.998;115.906;2023-03-01T04:11:33;33.30;95.30
5940;DHT22;2995;-31.998;115.906;2023-03-01T04:14:05;33.30;94.20
5940;DHT22;2995;-31.998;115.906;2023-03-01T04:16:38;33.30;94.20
5940;DHT22;2995;-31.998;115.906;2023-03-01T04:19:09;33.70;94.20
5940;DHT22;2995;-31.998;115.906;2023-03-01T04:21:41;34.00;93.70
5940;DHT22;2995;-31.998;115.906;2023-03-01T04:24:12;34.10;94.00
5940;DHT22;2995;-31.998;115.906;2023-03-01T04:26:43;34.40;94.50
5940;DHT22;2995;-31.998;115.906;2023-03-01T04:29:14;34.40;93.30
5940;DHT22;2995;-31.998;115.906;2023-03-01T04:31:49;34.50;93.80
5940;DHT22;2995;-31.998;115.906;2023-03-01T04:34:20;34.70;92.50
5940;DHT22;2995;-31.998;115.906;2023-03-01T04:36:52;34.80;92.30
5940;DHT22;2995;-31.998;115.906;2023-03-01T04:39:23;34.70;92.10
5940;DHT22;2995;-31.998;115.906;2023-03-01T04:41:54;34.50;92.30
5940;DHT22;2995;-31.998;115.906;2023-03-01T04:44:26;34.60;91.50
5940;DHT22;2995;-31.998;115.906;2023-03-01T04:46:59;34.70;92.10
5940;DHT22;2995;-31.998;115.906;2023-03-01T04:49:30;34.90;92.00
5940;DHT22;2995;-31.998;115.906;2023-03-01T04:52:02;35.10;92.10
5940;DHT22;2995;-31.998;115.906;2023-03-01T04:54:37;35.40;90.60
5940;DHT22;2995;-31.998;115.906;2023-03-01T04:57:08;35.50;89.80
5940;DHT22;2995;-31.998;115.906;2023-03-01T04:59:39;35.40;89.60
5940;DHT22;2995;-31.998;115.906;2023-03-01T05:02:13;35.70;89.20
5940;DHT22;2995;-31.998;115.906;2023-03-01T05:04:45;35.70;89.80
5940;DHT22;2995;-31.998;115.906;2023-03-01T05:07:16;35.70;89.50
5940;DHT22;2995;-31.998;115.906;2023-03-01T05:09:48;35.80;88.70
5940;DHT22;2995;-31.998;115.906;2023-03-01T05:12:19;35.60;88.10
5940;DHT22;2995;-31.998;115.906;2023-03-01T05:14:50;35.80;88.10
5940;DHT22;2995;-31.998;115.906;2023-03-01T05:17:23;35.90;88.70
5940;DHT22;2995;-31.998;115.906;2023-03-01T05:19:55;36.00;87.90
5940;DHT22;2995;-31.998;115.906;2023-03-01T05:22:27;35.90;87.70
5940;DHT22;2995;-31.998;115.906;2023-03-01T05:24:59;36.10;87.30
5940;DHT22;2995;-31.998;115.906;2023-03-01T05:27:30;36.20;85.60
5940;DHT22;2995;-31.998;115.906;2023-03-01T05:30:01;36.30;86.10
5940;DHT22;2995;-31.998;115.906;2023-03-01T05:32:45;36.40;85.10
5940;DHT22;2995;-31.998;115.906;2023-03-01T05:35:18;36.50;85.20
5940;DHT22;2995;-31.998;115.906;2023-03-01T05:37:50;36.60;85.20
5940;DHT22;2995;-31.998;115.906;2023-03-01T05:40:23;36.60;84.80
5940;DHT22;2995;-31.998;115.906;2023-03-01T05:42:55;36.50;83.60
5940;DHT22;2995;-31.998;115.906;2023-03-01T05:45:27;36.30;82.60
5940;DHT22;2995;-31.998;115.906;2023-03-01T05:48:00;36.20;84.30
5940;DHT22;2995;-31.998;115.906;2023-03-01T05:50:35;36.30;83.50
5940;DHT22;2995;-31.998;115.906;2023-03-01T05:53:09;36.40;84.10
5940;DHT22;2995;-31.998;115.906;2023-03-01T05:55:41;36.40;83.50
5940;DHT22;2995;-31.998;115.906;2023-03-01T05:58:15;36.60;83.00
5940;DHT22;2995;-31.998;115.906;2023-03-01T06:00:47;36.50;82.00
5940;DHT22;2995;-31.998;115.906;2023-03-01T06:03:21;36.30;82.60
5940;DHT22;2995;-31.998;115.906;2023-03-01T06:05:56;36.30;83.40
5940;DHT22;2995;-31.998;115.906;2023-03-01T06:08:28;36.40;81.90
5940;DHT22;2995;-31.998;115.906;2023-03-01T06:10:59;36.40;83.10
5940;DHT22;2995;-31.998;115.906;2023-03-01T06:13:30;36.20;81.40
5940;DHT22;2995;-31.998;115.906;2023-03-01T06:16:04;36.20;81.30
5940;DHT22;2995;-31.998;115.906;2023-03-01T06:18:37;36.10;81.30
5940;DHT22;2995;-31.998;115.906;2023-03-01T06:21:10;36.00;82.10
5940;DHT22;2995;-31.998;115.906;2023-03-01T06:23:41;36.10;81.70
5940;DHT22;2995;-31.998;115.906;2023-03-01T06:26:13;36.00;81.80
5940;DHT22;2995;-31.998;115.906;2023-03-01T06:28:44;36.10;81.30
5940;DHT22;2995;-31.998;115.906;2023-03-01T06:31:15;36.30;81.40
5940;DHT22;2995;-31.998;115.906;2023-03-01T06:33:49;36.50;80.60
5940;DHT22;2995;-31.998;115.906;2023-03-01T06:36:20;36.60;79.20
5940;DHT22;2995;-31.998;115.906;2023-03-01T06:38:51;36.70;80.20
5940;DHT22;2995;-31.998;115.906;2023-03-01T06:41:22;36.80;79.70
5940;DHT22;2995;-31.998;115.906;2023-03-01T06:43:54;36.70;79.70
5940;DHT22;2995;-31.998;115.906;2023-03-01T06:46:25;36.70;78.90
5940;DHT22;2995;-31.998;115.906;2023-03-01T06:48:58;36.60;80.00
5940;DHT22;2995;-31.998;115.906;2023-03-01T06:51:32;36.70;81.00
5940;DHT22;2995;-31.998;115.906;2023-03-01T06:54:04;36.60;79.60
5940;DHT22;2995;-31.998;115.906;2023-03-01T06:56:35;36.70;79.20
5940;DHT22;2995;-31.998;115.906;2023-03-01T06:59:07;36.70;79.30
5940;DHT22;2995;-31.998;115.906;2023-03-01T07:01:38;36.90;79.10
5940;DHT22;2995;-31.998;115.906;2023-03-01T07:04:12;36.90;79.50
5940;DHT22;2995;-31.998;115.906;2023-03-01T07:06:43;37.00;79.10
5940;DHT22;2995;-31.998;115.906;2023-03-01T07:09:20;37.10;77.90
5940;DHT22;2995;-31.998;115.906;2023-03-01T07:11:51;37.10;78.00
5940;DHT22;2995;-31.998;115.906;2023-03-01T07:14:22;36.90;77.60
5940;DHT22;2995;-31.998;115.906;2023-03-01T07:16:54;37.00;78.70
5940;DHT22;2995;-31.998;115.906;2023-03-01T07:19:28;37.10;77.90
5940;DHT22;2995;-31.998;115.906;2023-03-01T07:21:59;37.00;77.60
5940;DHT22;2995;-31.998;115.906;2023-03-01T07:24:32;37.00;78.00
5940;DHT22;2995;-31.998;115.906;2023-03-01T07:27:03;37.00;77.40
5940;DHT22;2995;-31.998;115.906;2023-03-01T07:29:34;37.10;76.80
5940;DHT22;2995;-31.998;115.906;2023-03-01T07:32:07;37.10;77.60
5940;DHT22;2995;-31.998;115.906;2023-03-01T07:34:40;37.10;76.60
5940;DHT22;2995;-31.998;115.906;2023-03-01T07:37:12;37.20;77.50
5940;DHT22;2995;-31.998;115.906;2023-03-01T07:39:43;37.20;76.80
5940;DHT22;2995;-31.998;115.906;2023-03-01T07:42:14;37.40;76.50
5940;DHT22;2995;-31.998;115.906;2023-03-01T07:44:45;37.20;77.90
5940;DHT22;2995;-31.998;115.906;2023-03-01T07:47:16;37.30;77.00
5940;DHT22;2995;-31.998;115.906;2023-03-01T07:49:50;37.20;76.70
5940;DHT22;2995;-31.998;115.906;2023-03-01T07:52:21;37.10;76.70
5940;DHT22;2995;-31.998;115.906;2023-03-01T07:54:52;37.10;77.50
5940;DHT22;2995;-31.998;115.906;2023-03-01T07:57:23;37.10;77.50
5940;DHT22;2995;-31.998;115.906;2023-03-01T07:59:54;37.10;76.50
5940;DHT22;2995;-31.998;115.906;2023-03-01T08:02:26;37.00;76.90
5940;DHT22;2995;-31.998;115.906;2023-03-01T08:05:02;36.70;76.30
5940;DHT22;2995;-31.998;115.906;2023-03-01T08:07:34;36.80;76.90
5940;DHT22;2995;-31.998;115.906;2023-03-01T08:10:06;36.80;76.50
5940;DHT22;2995;-31.998;115.906;2023-03-01T08:12:37;36.80;75.70
5940;DHT22;2995;-31.998;115.906;2023-03-01T08:15:09;36.90;75.90
5940;DHT22;2995;-31.998;115.906;2023-03-01T08:17:41;36.80;76.50
5940;DHT22;2995;-31.998;115.906;2023-03-01T08:20:14;36.80;75.40
5940;DHT22;2995;-31.998;115.906;2023-03-01T08:22:45;36.50;74.90
5940;DHT22;2995;-31.998;115.906;2023-03-01T08:25:17;36.30;75.70
5940;DHT22;2995;-31.998;115.906;2023-03-01T08:27:48;36.30;76.50
5940;DHT22;2995;-31.998;115.906;2023-03-01T08:30:19;36.50;77.30
5940;DHT22;2995;-31.998;115.906;2023-03-01T08:32:51;36.60;78.10
5940;DHT22;2995;-31.998;115.906;2023-03-01T08:35:25;36.50;80.70
5940;DHT22;2995;-31.998;115.906;2023-03-01T08:37:56;36.40;81.80
5940;DHT22;2995;-31.998;115.906;2023-03-01T08:40:27;36.20;85.50
5940;DHT22;2995;-31.998;115.906;2023-03-01T08:43:05;35.90;87.40
5940;DHT22;2995;-31.998;115.906;2023-03-01T08:45:37;35.90;86.10
5940;DHT22;2995;-31.998;115.906;2023-03-01T08:48:09;35.80;87.10
5940;DHT22;2995;-31.998;115.906;2023-03-01T08:50:42;35.50;87.90
5940;DHT22;2995;-31.998;115.906;2023-03-01T08:53:13;35.10;89.00
5940;DHT22;2995;-31.998;115.906;2023-03-01T08:55:44;35.00;89.80
5940;DHT22;2995;-31.998;115.906;2023-03-01T08:58:16;34.80;90.20
5940;DHT22;2995;-31.998;115.906;2023-03-01T09:00:47;34.50;90.50
5940;DHT22;2995;-31.998;115.906;2023-03-01T09:03:18;34.50;90.50
5940;DHT22;2995;-31.998;115.906;2023-03-01T09:05:52;34.50;90.50
5940;DHT22;2995;-31.998;115.906;2023-03-01T09:08:23;34.50;90.60
5940;DHT22;2995;-31.998;115.906;2023-03-01T09:10:54;34.40;90.20
5940;DHT22;2995;-31.998;115.906;2023-03-01T09:13:26;34.20;90.40
5940;DHT22;2995;-31.998;115.906;2023-03-01T09:15:59;34.20;90.30
5940;DHT22;2995;-31.998;115.906;2023-03-01T09:18:31;34.10;90.40
5940;DHT22;2995;-31.998;115.906;2023-03-01T09:21:06;34.20;90.60
5940;DHT22;2995;-31.998;115.906;2023-03-01T09:23:39;34.20;90.50
5940;DHT22;2995;-31.998;115.906;2023-03-01T09:26:12;34.20;90.60
5940;DHT22;2995;-31.998;115.906;2023-03-01T09:28:44;33.90;90.40
5940;DHT22;2995;-31.998;115.906;2023-03-01T09:31:16;34.00;90.60
5940;DHT22;2995;-31.998;115.906;2023-03-01T09:33:49;34.00;90.80
5940;DHT22;2995;-31.998;115.906;2023-03-01T09:36:26;34.00;91.00
5940;DHT22;2995;-31.998;115.906;2023-03-01T09:38:58;33.80;91.30
5940;DHT22;2995;-31.998;115.906;2023-03-01T09:41:48;33.50;91.90
5940;DHT22;2995;-31.998;115.906;2023-03-01T09:44:29;33.50;92.10
5940;DHT22;2995;-31.998;115.906;2023-03-01T09:47:01;33.60;92.30
5940;DHT22;2995;-31.998;115.906;2023-03-01T09:49:34;33.70;92.50
5940;DHT22;2995;-31.998;115.906;2023-03-01T09:52:16;33.50;92.70
5940;DHT22;2995;-31.998;115.906;2023-03-01T09:54:51;33.40;93.00
5940;DHT22;2995;-31.998;115.906;2023-03-01T09:57:32;33.50;93.20
5940;DHT22;2995;-31.998;115.906;2023-03-01T10:00:35;33.70;93.40
5940;DHT22;2995;-31.998;115.906;2023-03-01T10:03:14;33.30;93.80
5940;DHT22;2995;-31.998;115.906;2023-03-01T10:05:56;33.20;93.90
5940;DHT22;2995;-31.998;115.906;2023-03-01T10:08:46;33.20;93.90
5940;DHT22;2995;-31.998;115.906;2023-03-01T10:11:22;33.20;94.40
5940;DHT22;2995;-31.998;115.906;2023-03-01T10:14:01;33.40;94.30
5940;DHT22;2995;-31.998;115.906;2023-03-01T10:16:40;33.30;94.30
5940;DHT22;2995;-31.998;115.906;2023-03-01T10:19:20;33.30;94.60
5940;DHT22;2995;-31.998;115.906;2023-03-01T10:21:54;33.40;94.40
5940;DHT22;2995;-31.998;115.906;2023-03-01T10:24:34;33.40;94.20
5940;DHT22;2995;-31.998;115.906;2023-03-01T10:27:09;33.40;94.00
5940;DHT22;2995;-31.998;115.906;2023-03-01T10:29:48;33.50;94.00
5940;DHT22;2995;-31.998;115.906;2023-03-01T10:32:20;33.50;93.90
5940;DHT22;2995;-31.998;115.906;2023-03-01T10:34:51;33.40;94.10
5940;DHT22;2995;-31.998;115.906;2023-03-01T10:37:23;33.40;93.80
5940;DHT22;2995;-31.998;115.906;2023-03-01T10:40:03;33.40;94.00
5940;DHT22;2995;-31.998;115.906;2023-03-01T10:42:38;33.20;94.30
5940;DHT22;2995;-31.998;115.906;2023-03-01T10:45:25;33.10;94.90
5940;DHT22;2995;-31.998;115.906;2023-03-01T10:48:12;33.00;94.90
5940;DHT22;2995;-31.998;115.906;2023-03-01T10:50:48;32.90;94.70
5940;DHT22;2995;-31.998;115.906;2023-03-01T10:53:27;32.80;95.00
5940;DHT22;2995;-31.998;115.906;2023-03-01T10:56:02;32.70;94.70
5940;DHT22;2995;-31.998;115.906;2023-03-01T10:58:35;32.70;95.00
5940;DHT22;2995;-31.998;115.906;2023-03-01T11:01:23;32.50;95.10
5940;DHT22;2995;-31.998;115.906;2023-03-01T11:04:11;32.50;95.20
5940;DHT22;2995;-31.998;115.906;2023-03-01T11:06:43;32.50;95.00
5940;DHT22;2995;-31.998;115.906;2023-03-01T11:09:20;32.50;94.90
5940;DHT22;2995;-31.998;115.906;2023-03-01T11:11:56;32.40;95.00
5940;DHT22;2995;-31.998;115.906;2023-03-01T11:14:29;32.50;95.30
5940;DHT22;2995;-31.998;115.906;2023-03-01T11:17:04;32.60;95.60
5940;DHT22;2995;-31.998;115.906;2023-03-01T11:19:36;32.40;95.50
5940;DHT22;2995;-31.998;115.906;2023-03-01T11:22:12;32.40;95.50
5940;DHT22;2995;-31.998;115.906;2023-03-01T11:24:46;32.40;95.10
5940;DHT22;2995;-31.998;115.906;2023-03-01T11:27:24;32.40;95.60
5940;DHT22;2995;-31.998;115.906;2023-03-01T11:29:58;32.30;95.70
5940;DHT22;2995;-31.998;115.906;2023-03-01T11:32:34;32.20;95.80
5940;DHT22;2995;-31.998;115.906;2023-03-01T11:35:12;32.00;95.80
5940;DHT22;2995;-31.998;115.906;2023-03-01T11:37:53;32.00;96.30
5940;DHT22;2995;-31.998;115.906;2023-03-01T11:40:29;32.10;96.20
5940;DHT22;2995;-31.998;115.906;2023-03-01T11:43:09;32.10;96.30
5940;DHT22;2995;-31.998;115.906;2023-03-01T11:45:54;32.10;96.70
5940;DHT22;2995;-31.998;115.906;2023-03-01T11:48:48;32.00;96.60
5940;DHT22;2995;-31.998;115.906;2023-03-01T11:51:38;32.20;96.40
5940;DHT22;2995;-31.998;115.906;2023-03-01T11:54:23;32.10;96.30
5940;DHT22;2995;-31.998;115.906;2023-03-01T11:57:00;31.90;96.50
5940;DHT22;2995;-31.998;115.906;2023-03-01T12:08:43;31.60;97.40
5940;DHT22;2995;-31.998;115.906;2023-03-01T12:11:27;31.60;97.40
5940;DHT22;2995;-31.998;115.906;2023-03-01T12:14:13;31.60;97.30
5940;DHT22;2995;-31.998;115.906;2023-03-01T12:20:08;31.70;97.70
5940;DHT22;2995;-31.998;115.906;2023-03-01T12:22:55;31.60;97.70
5940;DHT22;2995;-31.998;115.906;2023-03-01T12:25:33;31.70;97.90
5940;DHT22;2995;-31.998;115.906;2023-03-01T12:28:23;31.60;97.90
5940;DHT22;2995;-31.998;115.906;2023-03-01T12:31:16;31.50;98.00
5940;DHT22;2995;-31.998;115.906;2023-03-01T12:34:01;31.40;98.30
5940;DHT22;2995;-31.998;115.906;2023-03-01T12:36:48;31.50;98.30
5940;DHT22;2995;-31.998;115.906;2023-03-01T12:39:38;31.40;98.30
5940;DHT22;2995;-31.998;115.906;2023-03-01T12:42:21;31.30;98.50
5940;DHT22;2995;-31.998;115.906;2023-03-01T12:45:16;31.20;99.20
5940;DHT22;2995;-31.998;115.906;2023-03-01T12:48:08;31.30;99.30
5940;DHT22;2995;-31.998;115.906;2023-03-01T12:50:44;31.30;99.10
5940;DHT22;2995;-31.998;115.906;2023-03-01T12:53:24;31.10;99.20
5940;DHT22;2995;-31.998;115.906;2023-03-01T12:55:59;31.20;99.50
5940;DHT22;2995;-31.998;115.906;2023-03-01T12:58:34;31.10;99.40
5940;DHT22;2995;-31.998;115.906;2023-03-01T13:01:15;31.00;99.30
5940;DHT22;2995;-31.998;115.906;2023-03-01T13:04:08;31.00;99.60
5940;DHT22;2995;-31.998;115.906;2023-03-01T13:06:50;31.00;99.80
5940;DHT22;2995;-31.998;115.906;2023-03-01T13:09:34;30.90;99.90
5940;DHT22;2995;-31.998;115.906;2023-03-01T13:15:29;30.90;99.90
5940;DHT22;2995;-31.998;115.906;2023-03-01T13:18:02;30.90;99.90
5940;DHT22;2995;-31.998;115.906;2023-03-01T13:20:44;30.80;99.90
5940;DHT22;2995;-31.998;115.906;2023-03-01T13:23:26;30.80;99.90
5940;DHT22;2995;-31.998;115.906;2023-03-01T13:26:14;30.80;99.90
5940;DHT22;2995;-31.998;115.906;2023-03-01T13:28:58;30.80;99.90
5940;DHT22;2995;-31.998;115.906;2023-03-01T13:31:59;30.60;99.90
5940;DHT22;2995;-31.998;115.906;2023-03-01T13:34:52;30.60;99.90
5940;DHT22;2995;-31.998;115.906;2023-03-01T13:37:34;30.60;99.90
5940;DHT22;2995;-31.998;115.906;2023-03-01T13:46:18;30.50;99.90
5940;DHT22;2995;-31.998;115.906;2023-03-01T13:48:52;30.40;99.90
5940;DHT22;2995;-31.998;115.906;2023-03-01T13:51:26;30.30;99.90
5940;DHT22;2995;-31.998;115.906;2023-03-01T13:53:59;30.30;99.90
5940;DHT22;2995;-31.998;115.906;2023-03-01T13:56:37;30.30;99.90
5940;DHT22;2995;-31.998;115.906;2023-03-01T13:59:14;30.20;99.90
5940;DHT22;2995;-31.998;115.906;2023-03-01T14:01:53;30.00;99.90
5940;DHT22;2995;-31.998;115.906;2023-03-01T14:04:26;29.90;99.90
5940;DHT22;2995;-31.998;115.906;2023-03-01T14:07:16;29.90;99.90
5940;DHT22;2995;-31.998;115.906;2023-03-01T14:09:51;29.90;99.90
5940;DHT22;2995;-31.998;115.906;2023-03-01T14:12:32;29.80;99.90
5940;DHT22;2995;-31.998;115.906;2023-03-01T14:15:09;29.80;99.90
5940;DHT22;2995;-31.998;115.906;2023-03-01T14:17:55;29.80;99.90
5940;DHT22;2995;-31.998;115.906;2023-03-01T14:20:32;29.50;99.90
5940;DHT22;2995;-31.998;115.906;2023-03-01T14:23:10;29.60;99.90
5940;DHT22;2995;-31.998;115.906;2023-03-01T14:25:48;29.70;99.90
5940;DHT22;2995;-31.998;115.906;2023-03-01T14:28:21;29.50;99.90
5940;DHT22;2995;-31.998;115.906;2023-03-01T14:30:53;29.50;99.90
5940;DHT22;2995;-31.998;115.906;2023-03-01T14:33:29;29.50;99.90
5940;DHT22;2995;-31.998;115.906;2023-03-01T14:36:02;29.60;99.90
5940;DHT22;2995;-31.998;115.906;2023-03-01T14:38:36;29.60;99.90
5940;DHT22;2995;-31.998;115.906;2023-03-01T14:41:09;29.20;99.90
5940;DHT22;2995;-31.998;115.906;2023-03-01T14:43:43;29.10;99.90
5940;DHT22;2995;-31.998;115.906;2023-03-01T14:46:20;29.20;99.90
5940;DHT22;2995;-31.998;115.906;2023-03-01T14:48:57;29.30;99.90
5940;DHT22;2995;-31.998;115.906;2023-03-01T14:51:35;29.40;99.90
5940;DHT22;2995;-31.998;115.906;2023-03-01T14:54:21;29.30;99.90
5940;DHT22;2995;-31.998;115.906;2023-03-01T14:56:58;29.20;99.90
5940;DHT22;2995;-31.998;115.906;2023-03-01T14:59:29;29.10;99.90
5940;DHT22;2995;-31.998;115.906;2023-03-01T15:02:04;29.10;99.90
5940;DHT22;2995;-31.998;115.906;2023-03-01T15:04:37;29.30;99.90
5940;DHT22;2995;-31.998;115.906;2023-03-01T15:07:14;29.30;99.90
5940;DHT22;2995;-31.998;115.906;2023-03-01T15:09:46;29.40;99.90
5940;DHT22;2995;-31.998;115.906;2023-03-01T15:12:41;29.30;99.90
5940;DHT22;2995;-31.998;115.906;2023-03-01T15:15:30;29.20;99.90
5940;DHT22;2995;-31.998;115.906;2023-03-01T15:18:04;29.10;99.90
5940;DHT22;2995;-31.998;115.906;2023-03-01T15:20:38;28.90;99.90
5940;DHT22;2995;-31.998;115.906;2023-03-01T15:23:20;28.90;99.90
5940;DHT22;2995;-31.998;115.906;2023-03-01T15:25:53;28.90;99.90
5940;DHT22;2995;-31.998;115.906;2023-03-01T15:28:28;29.10;99.90
5940;DHT22;2995;-31.998;115.906;2023-03-01T15:31:02;29.10;99.90
5940;DHT22;2995;-31.998;115.906;2023-03-01T15:33:40;29.20;99.90
5940;DHT22;2995;-31.998;115.906;2023-03-01T15:36:36;29.20;99.90
5940;DHT22;2995;-31.998;115.906;2023-03-01T15:39:36;29.20;99.90
5940;DHT22;2995;-31.998;115.906;2023-03-01T15:42:10;29.20;99.90
5940;DHT22;2995;-31.998;115.906;2023-03-01T15:44:42;29.00;99.90
5940;DHT22;2995;-31.998;115.906;2023-03-01T15:47:30;29.00;99.90
5940;DHT22;2995;-31.998;115.906;2023-03-01T15:50:01;28.80;99.90
5940;DHT22;2995;-31.998;115.906;2023-03-01T15:52:38;28.90;99.90
5940;DHT22;2995;-31.998;115.906;2023-03-01T15:55:17;28.80;99.90
5940;DHT22;2995;-31.998;115.906;2023-03-01T15:57:49;28.70;99.90
5940;DHT22;2995;-31.998;115.906;2023-03-01T16:00:21;28.70;99.90
5940;DHT22;2995;-31.998;115.906;2023-03-01T16:02:53;28.60;99.90
5940;DHT22;2995;-31.998;115.906;2023-03-01T16:05:26;28.70;99.90
5940;DHT22;2995;-31.998;115.906;2023-03-01T16:08:00;28.90;99.90
5940;DHT22;2995;-31.998;115.906;2023-03-01T16:10:32;28.70;99.90
5940;DHT22;2995;-31.998;115.906;2023-03-01T16:13:03;28.60;99.90
5940;DHT22;2995;-31.998;115.906;2023-03-01T16:15:34;28.50;99.90
5940;DHT22;2995;-31.998;115.906;2023-03-01T16:18:06;28.50;99.90
5940;DHT22;2995;-31.998;115.906;2023-03-01T16:20:39;28.50;99.90
5940;DHT22;2995;-31.998;115.906;2023-03-01T16:23:13;28.40;99.90
5940;DHT22;2995;-31.998;115.906;2023-03-01T16:25:44;28.30;99.90
5940;DHT22;2995;-31.998;115.906;2023-03-01T16:28:15;28.40;99.90